Time;durP1;ratioP1;P1;durP2;ratioP2;P2;SDS_P1;SDS_P2;PMS_P1;PMS_P2;Temp;Humidity;BMP_temperature;BMP_pressure;BME280_temperature;BME280_humidity;BME280_pressure;Samples;Min_cycle;Max_cycle;Signal;HPM_P1;HPM_P2
2023/07/15 00:01:06;;;;;;;2.60;2.00;;;27.20;40.80;;;;;;4998818;28;20482;-73
2023/07/15 00:03:36;;;;;;;2.80;2.30;;;27.20;39.70;;;;;;5005772;28;20462;-66
2023/07/15 00:06:05;;;;;;;4.00;2.37;;;27.20;40.00;;;;;;4997101;28;20713;-66
2023/07/15 00:08:34;;;;;;;4.37;2.07;;;27.20;39.30;;;;;;5000197;28;20482;-67
2023/07/15 00:11:04;;;;;;;1.77;1.67;;;27.20;39.80;;;;;;5015358;28;20501;-67
2023/07/15 00:13:32;;;;;;;3.47;2.40;;;27.20;39.60;;;;;;5008508;28;20467;-67
2023/07/15 00:16:02;;;;;;;1.80;1.70;;;27.20;39.70;;;;;;5003241;28;20483;-67
2023/07/15 00:18:31;;;;;;;1.80;1.70;;;27.20;39.90;;;;;;5003056;28;20661;-67
2023/07/15 00:20:59;;;;;;;2.60;2.40;;;27.20;39.60;;;;;;5007060;28;20472;-67
2023/07/15 00:23:27;;;;;;;1.70;1.60;;;27.20;39.70;;;;;;5013522;28;21075;-67
2023/07/15 00:25:56;;;;;;;2.40;2.00;;;27.20;39.90;;;;;;5015966;28;20441;-66
2023/07/15 00:28:24;;;;;;;2.03;1.90;;;27.20;39.20;;;;;;4997308;28;20448;-66
2023/07/15 00:30:55;;;;;;;2.57;2.10;;;27.20;39.50;;;;;;5007435;28;20445;-66
2023/07/15 00:33:25;;;;;;;2.33;2.13;;;27.20;39.80;;;;;;5009658;28;20476;-66
2023/07/15 00:35:54;;;;;;;3.70;2.17;;;27.20;39.50;;;;;;5004157;28;20910;-67
2023/07/15 00:38:23;;;;;;;2.27;2.07;;;27.20;39.70;;;;;;5009585;28;20828;-67
2023/07/15 00:40:51;;;;;;;1.93;1.73;;;27.20;40.00;;;;;;5015228;28;20621;-67
2023/07/15 00:43:58;;;;;;;2.27;2.07;;;27.20;39.40;;;;;;5007413;28;20540;-66
2023/07/15 00:47:21;;;;;;;2.50;2.10;;;27.20;39.40;;;;;;5014290;28;20461;-67
2023/07/15 00:49:52;;;;;;;2.13;1.73;;;27.20;39.60;;;;;;5014029;28;20461;-67
2023/07/15 00:52:21;;;;;;;2.10;1.73;;;27.20;39.20;;;;;;5012514;28;21024;-67
2023/07/15 00:54:54;;;;;;;1.67;1.57;;;27.20;39.30;;;;;;4999646;28;20958;-67
2023/07/15 00:57:26;;;;;;;3.00;2.70;;;27.20;39.50;;;;;;5006746;28;20448;-66
2023/07/15 00:59:58;;;;;;;1.80;1.70;;;27.20;39.10;;;;;;5014584;28;20550;-67
2023/07/15 01:02:27;;;;;;;3.20;2.17;;;27.20;39.40;;;;;;5001842;28;20484;-67
2023/07/15 01:04:57;;;;;;;2.70;1.93;;;27.20;39.40;;;;;;5006613;28;20432;-67
2023/07/15 01:07:27;;;;;;;1.83;1.57;;;27.20;39.70;;;;;;5006640;28;21008;-66
2023/07/15 01:09:55;;;;;;;2.00;1.87;;;27.20;39.70;;;;;;5007928;28;20481;-67
2023/07/15 01:12:23;;;;;;;2.53;2.20;;;27.20;39.10;;;;;;5007446;28;20455;-67
2023/07/15 01:14:52;;;;;;;1.90;1.70;;;27.20;39.40;;;;;;5005938;28;20523;-67
2023/07/15 01:17:20;;;;;;;1.80;1.60;;;27.20;39.10;;;;;;5004981;28;20479;-67
2023/07/15 01:19:50;;;;;;;1.80;1.70;;;27.20;39.50;;;;;;5008574;28;20464;-67
2023/07/15 01:22:22;;;;;;;2.07;1.87;;;27.10;39.40;;;;;;5004885;28;20460;-66
2023/07/15 01:24:52;;;;;;;2.03;1.80;;;27.20;39.30;;;;;;5011342;28;20913;-67
2023/07/15 01:27:26;;;;;;;1.73;1.60;;;27.20;39.20;;;;;;5012956;28;20447;-66
2023/07/15 01:29:55;;;;;;;2.17;1.97;;;27.10;39.10;;;;;;5001950;28;20504;-67
2023/07/15 01:32:24;;;;;;;2.17;1.83;;;27.10;39.60;;;;;;5003907;28;20546;-67
2023/07/15 01:34:53;;;;;;;2.07;1.67;;;27.10;39.50;;;;;;5013480;28;20460;-66
2023/07/15 01:37:21;;;;;;;2.10;1.90;;;27.10;39.00;;;;;;5006053;28;20416;-67
2023/07/15 01:39:53;;;;;;;2.00;1.90;;;27.10;39.20;;;;;;5006100;28;20473;-67
2023/07/15 01:42:21;;;;;;;2.30;2.03;;;27.10;39.40;;;;;;5006324;28;20443;-67
2023/07/15 01:44:50;;;;;;;2.37;1.90;;;27.10;39.30;;;;;;5008114;28;20929;-66
2023/07/15 01:47:20;;;;;;;2.37;1.93;;;27.10;39.00;;;;;;5006760;28;20469;-67
2023/07/15 01:49:48;;;;;;;2.90;1.57;;;27.10;39.20;;;;;;5006638;28;20480;-67
2023/07/15 01:52:17;;;;;;;1.87;1.77;;;27.10;39.60;;;;;;5005684;28;20443;-66
2023/07/15 01:54:45;;;;;;;2.13;1.93;;;27.10;39.00;;;;;;5004426;28;20467;-67
2023/07/15 01:57:15;;;;;;;2.10;1.90;;;27.10;39.40;;;;;;5003174;28;20555;-66
2023/07/15 01:59:43;;;;;;;2.00;1.83;;;27.10;39.50;;;;;;5001379;28;20488;-67
2023/07/15 02:02:12;;;;;;;2.57;2.37;;;27.10;39.40;;;;;;4999558;28;20452;-67
2023/07/15 02:04:40;;;;;;;1.70;1.60;;;27.10;39.60;;;;;;5006415;28;20472;-65
2023/07/15 02:07:09;;;;;;;4.00;1.80;;;27.10;39.50;;;;;;5008723;28;20526;-67
2023/07/15 02:09:39;;;;;;;3.20;2.03;;;27.10;39.40;;;;;;5001422;28;20483;-67
2023/07/15 02:12:08;;;;;;;1.60;1.50;;;27.10;39.30;;;;;;5012567;28;20542;-67
2023/07/15 02:14:38;;;;;;;1.47;1.37;;;27.10;39.70;;;;;;5002722;28;20472;-67
2023/07/15 02:17:07;;;;;;;2.53;1.93;;;27.10;39.40;;;;;;5020079;28;20494;-67
2023/07/15 02:19:37;;;;;;;2.33;2.13;;;27.10;39.00;;;;;;5012871;28;20851;-67
2023/07/15 02:22:06;;;;;;;2.20;2.00;;;27.10;39.40;;;;;;5011932;28;20460;-67
2023/07/15 02:24:35;;;;;;;1.97;1.70;;;27.00;39.20;;;;;;5004300;28;20479;-67
2023/07/15 02:27:04;;;;;;;2.27;2.07;;;27.00;39.70;;;;;;5014746;28;20451;-66
2023/07/15 02:29:32;;;;;;;2.03;1.93;;;27.00;39.50;;;;;;5006807;28;20905;-67
2023/07/15 02:32:04;;;;;;;2.03;1.80;;;27.10;39.80;;;;;;5004827;28;20442;-66
2023/07/15 02:34:32;;;;;;;1.60;1.50;;;27.00;40.20;;;;;;4998446;28;20495;-67
2023/07/15 02:37:01;;;;;;;2.13;1.70;;;27.10;40.10;;;;;;5007626;28;20470;-66
2023/07/15 02:39:29;;;;;;;2.53;2.13;;;27.00;39.70;;;;;;5004939;28;20558;-67
2023/07/15 02:41:57;;;;;;;1.50;1.40;;;27.00;39.60;;;;;;5016171;28;20444;-67
2023/07/15 02:44:27;;;;;;;1.53;1.43;;;27.00;40.20;;;;;;5008806;28;20555;-67
2023/07/15 02:46:55;;;;;;;2.10;1.90;;;27.00;40.10;;;;;;5008654;28;20452;-67
2023/07/15 02:49:25;;;;;;;2.63;1.90;;;27.10;40.00;;;;;;5005159;28;20499;-67
2023/07/15 02:51:53;;;;;;;2.13;1.73;;;27.10;40.20;;;;;;5015574;28;20481;-67
2023/07/15 02:54:22;;;;;;;2.50;2.30;;;27.00;40.30;;;;;;5001295;28;21045;-67
2023/07/15 02:56:53;;;;;;;1.93;1.80;;;27.00;40.60;;;;;;5016315;28;20463;-73
2023/07/15 02:59:22;;;;;;;1.87;1.77;;;27.00;40.80;;;;;;5013760;28;20551;-67
2023/07/15 03:01:50;;;;;;;2.17;1.97;;;27.00;40.70;;;;;;5002855;28;20535;-67
2023/07/15 03:04:19;;;;;;;1.77;1.67;;;27.00;40.60;;;;;;5004599;28;20991;-67
2023/07/15 03:06:49;;;;;;;2.50;1.73;;;27.00;40.80;;;;;;5005731;28;20451;-67
2023/07/15 03:09:17;;;;;;;2.10;1.63;;;27.00;40.30;;;;;;4997576;28;20570;-67
2023/07/15 03:11:46;;;;;;;3.70;2.20;;;27.00;40.70;;;;;;5008723;28;20531;-67
2023/07/15 03:14:14;;;;;;;2.70;1.90;;;27.00;40.30;;;;;;5005023;28;20531;-67
2023/07/15 03:16:42;;;;;;;1.70;1.60;;;27.00;40.00;;;;;;4998114;28;20474;-67
2023/07/15 03:19:11;;;;;;;1.97;1.70;;;27.00;40.40;;;;;;5003606;28;20481;-66
2023/07/15 03:21:39;;;;;;;1.70;1.60;;;27.00;40.30;;;;;;5003097;28;20459;-67
2023/07/15 03:24:10;;;;;;;1.60;1.50;;;27.00;40.70;;;;;;5004691;28;20570;-67
2023/07/15 03:26:40;;;;;;;1.77;1.67;;;27.00;40.80;;;;;;5012280;28;20469;-67
2023/07/15 03:29:09;;;;;;;1.80;1.70;;;27.00;40.80;;;;;;5005084;28;20915;-67
2023/07/15 03:31:41;;;;;;;2.53;1.97;;;26.90;40.50;;;;;;5010787;28;20510;-66
2023/07/15 03:34:09;;;;;;;1.80;1.70;;;26.90;40.20;;;;;;5019846;28;20498;-67
2023/07/15 03:36:38;;;;;;;2.47;2.27;;;26.90;40.70;;;;;;5002273;28;20456;-67
2023/07/15 03:39:06;;;;;;;2.17;1.97;;;26.90;40.70;;;;;;5005131;28;20475;-67
2023/07/15 03:41:36;;;;;;;2.50;2.30;;;26.90;40.40;;;;;;5008811;28;20461;-67
2023/07/15 03:44:05;;;;;;;1.93;1.83;;;26.90;39.90;;;;;;5019489;28;20479;-67
2023/07/15 03:46:34;;;;;;;2.20;1.93;;;26.90;40.70;;;;;;5016132;28;20868;-67
2023/07/15 03:49:03;;;;;;;1.90;1.50;;;26.90;40.80;;;;;;5005961;28;20493;-67
2023/07/15 03:51:31;;;;;;;2.17;1.97;;;26.90;40.80;;;;;;5013520;28;20456;-67
2023/07/15 03:53:59;;;;;;;2.23;1.87;;;26.90;40.30;;;;;;4998632;28;20535;-67
2023/07/15 03:56:28;;;;;;;2.00;1.77;;;26.90;40.20;;;;;;5006992;28;20459;-67
2023/07/15 03:58:59;;;;;;;2.80;1.87;;;26.90;40.70;;;;;;5010541;28;21011;-67
2023/07/15 04:01:27;;;;;;;1.90;1.70;;;26.90;40.70;;;;;;5012224;28;20955;-67
2023/07/15 04:03:55;;;;;;;1.50;1.40;;;26.90;40.70;;;;;;5005153;28;20873;-66
2023/07/15 04:06:24;;;;;;;3.23;1.90;;;26.90;41.90;;;;;;5008144;28;20516;-67
2023/07/15 04:08:52;;;;;;;2.30;1.57;;;26.90;40.80;;;;;;4998805;28;20547;-67
2023/07/15 04:11:21;;;;;;;2.17;1.77;;;26.90;40.70;;;;;;5009477;28;20449;-67
2023/07/15 04:13:49;;;;;;;1.77;1.67;;;26.90;40.70;;;;;;5015174;28;20487;-67
2023/07/15 04:16:19;;;;;;;3.17;2.00;;;26.90;40.80;;;;;;5012808;28;20771;-66
2023/07/15 04:18:48;;;;;;;2.60;2.20;;;26.90;40.70;;;;;;5005497;28;20482;-67
2023/07/15 04:21:16;;;;;;;1.80;1.70;;;26.90;40.70;;;;;;5011843;28;20460;-67
2023/07/15 04:23:44;;;;;;;2.33;1.80;;;26.90;40.70;;;;;;5005759;28;20536;-67
2023/07/15 04:26:14;;;;;;;2.87;1.63;;;26.90;40.70;;;;;;5005949;28;20448;-67
2023/07/15 04:28:42;;;;;;;1.97;1.67;;;26.90;40.80;;;;;;5004341;28;20538;-67
2023/07/15 04:31:11;;;;;;;2.80;2.17;;;26.80;40.60;;;;;;4999074;28;20456;-67
2023/07/15 04:33:41;;;;;;;1.40;1.30;;;26.90;40.70;;;;;;4990226;28;20492;-67
2023/07/15 04:36:09;;;;;;;2.30;2.10;;;26.80;40.70;;;;;;5007577;28;20865;-67
2023/07/15 04:38:38;;;;;;;1.57;1.47;;;26.80;40.60;;;;;;4999645;28;20869;-67
2023/07/15 04:41:06;;;;;;;1.87;1.43;;;26.80;40.60;;;;;;5006668;28;20467;-67
2023/07/15 04:43:35;;;;;;;1.60;1.50;;;26.80;40.60;;;;;;5011150;28;20877;-66
2023/07/15 04:46:03;;;;;;;2.13;1.57;;;26.80;40.70;;;;;;5007234;28;20506;-67
2023/07/15 04:48:32;;;;;;;1.80;1.70;;;26.80;40.70;;;;;;5016329;28;20468;-67
2023/07/15 04:51:02;;;;;;;1.70;1.60;;;26.80;40.60;;;;;;5014761;28;20856;-67
2023/07/15 04:53:30;;;;;;;1.60;1.47;;;26.80;40.60;;;;;;5000885;28;20473;-67
2023/07/15 04:55:58;;;;;;;1.63;1.53;;;26.80;40.90;;;;;;5021399;28;20468;-67
2023/07/15 04:58:27;;;;;;;1.60;1.50;;;26.80;41.00;;;;;;5002456;28;20464;-67
2023/07/15 05:00:55;;;;;;;2.00;1.80;;;26.80;41.10;;;;;;5009003;28;20833;-67
2023/07/15 05:03:24;;;;;;;1.80;1.53;;;26.80;41.10;;;;;;5011763;28;20485;-66
2023/07/15 05:05:52;;;;;;;2.60;1.67;;;26.80;40.60;;;;;;5005490;28;20948;-67
2023/07/15 05:08:23;;;;;;;1.77;1.67;;;26.80;41.00;;;;;;5007547;28;20453;-67
2023/07/15 05:10:51;;;;;;;1.93;1.53;;;26.80;41.00;;;;;;5010293;28;20506;-67
2023/07/15 05:13:20;;;;;;;2.03;1.37;;;26.80;41.30;;;;;;5021269;28;20459;-67
2023/07/15 05:15:48;;;;;;;1.70;1.60;;;26.80;41.40;;;;;;5016605;28;20458;-67
2023/07/15 05:18:17;;;;;;;2.20;1.63;;;26.80;41.60;;;;;;5003574;28;20526;-67
2023/07/15 05:20:46;;;;;;;1.80;1.70;;;26.80;41.60;;;;;;5021934;28;20459;-67
2023/07/15 05:23:14;;;;;;;2.40;1.77;;;26.80;41.60;;;;;;5001882;28;20473;-67
2023/07/15 05:25:44;;;;;;;1.50;1.40;;;26.80;41.70;;;;;;5015044;28;20450;-67
2023/07/15 05:28:13;;;;;;;1.90;1.80;;;26.80;41.70;;;;;;5009867;28;20434;-67
2023/07/15 05:30:41;;;;;;;2.90;1.77;;;26.80;41.70;;;;;;5004496;28;20454;-66
2023/07/15 05:33:10;;;;;;;2.03;1.80;;;26.80;41.70;;;;;;4997940;28;20483;-67
2023/07/15 05:35:39;;;;;;;1.70;1.60;;;26.80;41.60;;;;;;5024871;28;20808;-67
2023/07/15 05:38:07;;;;;;;2.50;1.63;;;26.80;41.30;;;;;;5002730;28;21095;-67
2023/07/15 05:40:40;;;;;;;3.03;2.07;;;26.80;41.10;;;;;;5011353;28;20452;-67
2023/07/15 05:43:10;;;;;;;1.87;1.70;;;26.80;41.10;;;;;;5003415;28;20478;-66
2023/07/15 05:45:39;;;;;;;1.70;1.60;;;26.80;41.30;;;;;;5018213;28;20439;-66
2023/07/15 05:48:07;;;;;;;2.00;1.90;;;26.80;40.70;;;;;;5004735;28;20485;-66
2023/07/15 05:50:37;;;;;;;1.60;1.50;;;26.80;41.10;;;;;;5014984;28;20454;-67
2023/07/15 05:53:05;;;;;;;2.00;1.80;;;26.80;40.80;;;;;;4995805;28;20480;-66
2023/07/15 05:55:35;;;;;;;1.53;1.43;;;26.80;40.60;;;;;;5010833;28;20468;-67
2023/07/15 05:58:09;;;;;;;2.83;1.70;;;26.80;40.80;;;;;;5018720;28;20975;-66
2023/07/15 06:00:41;;;;;;;1.70;1.60;;;26.80;40.70;;;;;;5008825;28;20443;-67
2023/07/15 06:03:10;;;;;;;1.90;1.70;;;26.80;41.40;;;;;;5000379;28;20566;-67
2023/07/15 06:05:39;;;;;;;1.90;1.50;;;26.80;41.20;;;;;;5005512;28;20447;-67
2023/07/15 06:08:07;;;;;;;5.80;2.30;;;26.80;41.60;;;;;;5004804;28;20484;-67
2023/07/15 06:10:36;;;;;;;2.60;1.73;;;26.80;41.50;;;;;;5002527;28;20458;-66
2023/07/15 06:13:04;;;;;;;3.13;1.77;;;26.80;41.30;;;;;;5001637;28;20464;-67
2023/07/15 06:15:35;;;;;;;1.63;1.53;;;26.80;41.30;;;;;;5000564;28;20447;-66
2023/07/15 06:18:05;;;;;;;1.73;1.63;;;26.80;41.60;;;;;;5003275;28;21230;-66
2023/07/15 06:20:33;;;;;;;1.80;1.70;;;26.80;41.60;;;;;;5006872;28;20452;-67
2023/07/15 06:23:01;;;;;;;1.70;1.60;;;26.80;41.90;;;;;;5000836;28;20467;-67
2023/07/15 06:25:30;;;;;;;2.00;1.60;;;26.80;42.00;;;;;;5005322;28;20531;-67
2023/07/15 06:27:59;;;;;;;2.00;1.90;;;26.80;42.00;;;;;;5002102;28;20456;-67
2023/07/15 06:30:27;;;;;;;2.50;2.30;;;26.80;42.20;;;;;;4999804;28;20976;-67
2023/07/15 06:32:56;;;;;;;1.93;1.83;;;26.80;42.10;;;;;;4997156;28;20500;-67
2023/07/15 06:35:26;;;;;;;2.10;1.90;;;26.80;42.20;;;;;;5001339;28;20477;-67
2023/07/15 06:37:55;;;;;;;1.70;1.60;;;26.80;42.40;;;;;;5013781;28;20470;-67
2023/07/15 06:40:23;;;;;;;1.70;1.60;;;26.80;42.20;;;;;;5008465;28;20424;-67
2023/07/15 06:42:52;;;;;;;1.93;1.70;;;26.80;42.40;;;;;;5003807;28;20476;-67
2023/07/15 06:45:21;;;;;;;1.40;1.30;;;26.80;42.30;;;;;;4994345;28;20502;-67
2023/07/15 06:47:50;;;;;;;2.03;1.67;;;26.80;42.40;;;;;;5004005;28;20471;-67
2023/07/15 06:50:19;;;;;;;2.67;1.80;;;26.80;42.10;;;;;;4999589;28;20529;-67
2023/07/15 06:52:48;;;;;;;2.00;1.80;;;26.80;42.50;;;;;;4997555;28;20521;-67
2023/07/15 06:55:18;;;;;;;3.07;1.67;;;26.80;42.50;;;;;;5002341;28;20517;-67
2023/07/15 06:57:47;;;;;;;2.17;1.97;;;26.80;42.70;;;;;;5000270;28;20436;-67
2023/07/15 07:00:15;;;;;;;2.13;2.00;;;26.80;42.80;;;;;;5003557;28;21189;-67
2023/07/15 07:02:44;;;;;;;1.33;1.23;;;26.80;42.90;;;;;;5008554;28;20486;-67
2023/07/15 07:05:12;;;;;;;1.63;1.37;;;26.80;42.90;;;;;;5003690;28;20448;-67
2023/07/15 07:07:44;;;;;;;1.97;1.87;;;26.80;42.90;;;;;;5003149;28;20484;-67
2023/07/15 07:10:14;;;;;;;1.90;1.80;;;26.80;42.90;;;;;;5022510;28;20447;-67
2023/07/15 07:12:42;;;;;;;2.20;1.77;;;26.70;42.80;;;;;;5020657;28;20551;-67
2023/07/15 07:15:11;;;;;;;2.30;1.63;;;26.70;42.90;;;;;;5006755;28;20464;-67
2023/07/15 07:17:40;;;;;;;1.70;1.60;;;26.70;42.90;;;;;;4984214;28;20493;-67
2023/07/15 07:20:09;;;;;;;2.40;2.20;;;26.70;43.00;;;;;;5004831;28;20564;-67
2023/07/15 07:22:38;;;;;;;1.83;1.73;;;26.70;43.10;;;;;;5004634;28;20869;-67
2023/07/15 07:25:07;;;;;;;1.90;1.73;;;26.70;43.00;;;;;;5005094;28;20542;-67
2023/07/15 07:27:37;;;;;;;2.03;1.60;;;26.70;43.10;;;;;;5022126;28;20801;-67
2023/07/15 07:30:07;;;;;;;2.50;1.60;;;26.70;43.20;;;;;;5003814;28;20441;-67
2023/07/15 07:32:36;;;;;;;1.60;1.50;;;26.70;43.20;;;;;;5002489;28;20899;-67
2023/07/15 07:35:05;;;;;;;2.33;1.73;;;26.70;43.30;;;;;;5007250;28;20429;-66
2023/07/15 07:37:33;;;;;;;1.83;1.57;;;26.70;43.30;;;;;;5002308;28;20449;-67
2023/07/15 07:40:02;;;;;;;2.60;2.40;;;26.70;43.50;;;;;;5004411;28;20485;-67
2023/07/15 07:42:30;;;;;;;2.20;1.70;;;26.70;43.50;;;;;;5007540;28;20996;-67
2023/07/15 07:45:00;;;;;;;1.83;1.73;;;26.70;43.50;;;;;;5004794;28;20550;-67
2023/07/15 07:47:29;;;;;;;1.57;1.47;;;26.70;43.60;;;;;;5006716;28;20495;-67
2023/07/15 07:49:57;;;;;;;1.93;1.63;;;26.70;43.70;;;;;;5002569;28;20451;-67
2023/07/15 07:52:25;;;;;;;1.40;1.30;;;26.70;43.80;;;;;;5006166;28;20460;-67
2023/07/15 07:54:54;;;;;;;1.80;1.70;;;26.70;43.90;;;;;;4999883;28;20584;-67
2023/07/15 07:57:22;;;;;;;2.60;1.70;;;26.60;43.80;;;;;;5007210;28;20467;-67
2023/07/15 07:59:51;;;;;;;2.63;1.70;;;26.60;43.80;;;;;;5010538;28;20501;-67
2023/07/15 08:02:21;;;;;;;1.50;1.40;;;26.70;44.00;;;;;;5006064;28;20570;-66
2023/07/15 08:04:49;;;;;;;1.63;1.50;;;26.60;44.00;;;;;;5002850;28;20539;-66
2023/07/15 08:07:18;;;;;;;1.70;1.60;;;26.60;44.00;;;;;;5004379;28;20444;-66
2023/07/15 08:09:46;;;;;;;2.53;1.73;;;26.60;44.10;;;;;;5005181;28;20845;-66
2023/07/15 08:12:16;;;;;;;2.53;1.57;;;26.60;44.20;;;;;;5011082;28;20454;-66
2023/07/15 08:14:45;;;;;;;1.63;1.53;;;26.60;44.60;;;;;;5010443;28;20881;-66
2023/07/15 08:17:13;;;;;;;2.60;1.83;;;26.60;44.80;;;;;;5004748;28;20537;-66
2023/07/15 08:19:43;;;;;;;2.00;1.83;;;26.60;44.90;;;;;;5017044;28;20473;-66
2023/07/15 08:22:12;;;;;;;1.97;1.77;;;26.60;45.00;;;;;;5004848;28;20448;-66
2023/07/15 08:24:41;;;;;;;1.53;1.43;;;26.60;45.20;;;;;;5000238;28;20484;-66
2023/07/15 08:27:09;;;;;;;2.67;1.60;;;26.60;45.80;;;;;;5002017;28;20454;-67
2023/07/15 08:29:38;;;;;;;1.70;1.60;;;26.60;46.20;;;;;;5009353;28;20476;-66
2023/07/15 08:32:07;;;;;;;4.00;1.63;;;26.50;46.40;;;;;;5006504;28;20452;-67
2023/07/15 08:34:36;;;;;;;1.97;1.77;;;26.50;47.80;;;;;;5010670;28;20484;-66
2023/07/15 08:37:06;;;;;;;1.87;1.60;;;26.50;47.30;;;;;;5004824;28;20474;-66
2023/07/15 08:39:35;;;;;;;2.30;1.53;;;26.50;47.20;;;;;;5007599;28;20475;-67
2023/07/15 08:42:04;;;;;;;3.77;2.27;;;26.50;47.80;;;;;;5007991;28;20946;-67
2023/07/15 08:44:32;;;;;;;3.83;1.70;;;26.50;48.30;;;;;;5007081;28;20515;-67
2023/07/15 08:47:01;;;;;;;3.20;1.90;;;26.50;48.00;;;;;;5006045;28;20537;-67
2023/07/15 08:49:31;;;;;;;2.53;2.10;;;26.50;49.60;;;;;;5004678;28;20555;-67
2023/07/15 08:52:01;;;;;;;2.53;1.60;;;26.40;48.70;;;;;;5005448;28;20452;-75
2023/07/15 08:54:32;;;;;;;2.40;1.73;;;26.40;48.40;;;;;;4996967;28;21012;-74
2023/07/15 08:57:01;;;;;;;2.40;1.40;;;26.40;49.00;;;;;;5014029;28;20453;-74
2023/07/15 08:59:30;;;;;;;3.40;2.03;;;26.40;49.10;;;;;;4999785;28;20480;-74
2023/07/15 09:01:59;;;;;;;5.33;1.60;;;26.40;50.00;;;;;;5000795;28;20450;-74
2023/07/15 09:04:28;;;;;;;2.00;1.80;;;26.40;49.00;;;;;;5003406;28;20467;-74
2023/07/15 09:06:57;;;;;;;3.10;1.47;;;26.40;49.30;;;;;;5015695;28;20459;-74
2023/07/15 09:09:33;;;;;;;2.73;2.10;;;26.40;49.40;;;;;;5001304;28;20595;-74
2023/07/15 09:12:03;;;;;;;2.00;1.60;;;26.40;49.40;;;;;;5004771;28;20522;-74
2023/07/15 09:14:31;;;;;;;2.17;1.50;;;26.40;49.30;;;;;;4999115;28;20482;-74
2023/07/15 09:17:00;;;;;;;1.83;1.70;;;26.40;50.00;;;;;;4999774;28;20529;-73
2023/07/15 09:19:34;;;;;;;2.20;1.60;;;26.40;49.70;;;;;;4999517;28;20513;-74
2023/07/15 09:22:07;;;;;;;3.30;1.90;;;26.40;50.00;;;;;;5002470;28;20542;-73
2023/07/15 09:24:39;;;;;;;1.63;1.53;;;26.40;49.40;;;;;;4995293;28;20887;-67
2023/07/15 09:27:08;;;;;;;3.10;1.80;;;26.40;49.80;;;;;;5013571;28;20545;-67
2023/07/15 09:29:38;;;;;;;2.03;1.63;;;26.40;50.00;;;;;;4996571;28;21084;-67
2023/07/15 09:32:08;;;;;;;4.10;2.47;;;26.40;49.80;;;;;;4998040;28;20466;-67
2023/07/15 09:34:40;;;;;;;2.10;1.90;;;26.40;50.70;;;;;;5002324;28;20502;-67
2023/07/15 09:37:09;;;;;;;1.57;1.47;;;26.30;50.20;;;;;;4999502;28;20479;-67
2023/07/15 09:39:39;;;;;;;2.00;1.60;;;26.40;49.90;;;;;;5008398;28;21004;-67
2023/07/15 09:42:09;;;;;;;2.00;1.50;;;26.30;49.80;;;;;;5001142;28;20477;-67
2023/07/15 09:44:39;;;;;;;2.10;1.80;;;26.30;49.70;;;;;;5003323;28;20502;-67
2023/07/15 09:47:08;;;;;;;2.53;2.00;;;26.30;50.10;;;;;;5000815;28;20442;-67
2023/07/15 09:49:37;;;;;;;2.37;1.50;;;26.40;49.70;;;;;;5009241;28;20508;-67
2023/07/15 09:52:07;;;;;;;2.63;2.43;;;26.30;50.10;;;;;;5001339;28;20448;-67
2023/07/15 09:54:36;;;;;;;1.77;1.40;;;26.30;50.00;;;;;;4998619;28;20984;-67
2023/07/15 09:57:12;;;;;;;1.70;1.60;;;26.30;49.60;;;;;;4997508;28;20549;-67
2023/07/15 09:59:45;;;;;;;1.67;1.57;;;26.40;50.00;;;;;;5002677;28;20468;-67
2023/07/15 10:02:32;;;;;;;2.20;1.60;;;26.40;50.10;;;;;;5005105;28;20507;-67
2023/07/15 10:05:04;;;;;;;1.73;1.63;;;26.30;50.10;;;;;;5008797;28;20494;-67
2023/07/15 10:07:33;;;;;;;2.00;1.80;;;26.40;49.80;;;;;;4996983;28;20463;-67
2023/07/15 10:10:04;;;;;;;3.77;1.83;;;26.40;49.60;;;;;;5001277;28;20472;-67
2023/07/15 10:12:38;;;;;;;1.80;1.63;;;26.40;49.70;;;;;;5000712;28;20462;-67
2023/07/15 10:15:08;;;;;;;1.53;1.43;;;26.40;49.70;;;;;;5012695;28;20458;-67
2023/07/15 10:17:38;;;;;;;2.17;1.97;;;26.30;49.90;;;;;;5014195;28;20799;-67
2023/07/15 10:20:11;;;;;;;1.60;1.50;;;26.30;50.80;;;;;;5006416;28;20470;-67
2023/07/15 10:22:41;;;;;;;2.00;1.67;;;26.30;50.20;;;;;;5003838;28;20562;-67
2023/07/15 10:25:11;;;;;;;2.87;1.70;;;26.30;50.50;;;;;;4997721;28;20449;-67
2023/07/15 10:27:41;;;;;;;1.83;1.73;;;26.30;50.70;;;;;;5006490;28;21082;-67
2023/07/15 10:30:22;;;;;;;1.40;1.30;;;26.30;49.90;;;;;;5011313;28;20484;-67
2023/07/15 10:33:11;;;;;;;2.60;1.60;;;26.30;49.80;;;;;;5004640;28;20490;-67
2023/07/15 10:35:51;;;;;;;1.97;1.77;;;26.30;49.60;;;;;;4975287;28;20470;-67
2023/07/15 10:38:27;;;;;;;1.80;1.70;;;26.30;49.70;;;;;;5001851;28;20479;-67
2023/07/15 10:40:59;;;;;;;2.03;1.70;;;26.30;49.70;;;;;;5005621;28;20472;-73
2023/07/15 10:43:41;;;;;;;1.97;1.77;;;26.30;50.00;;;;;;5008217;28;20783;-73
2023/07/15 10:46:10;;;;;;;2.07;1.77;;;26.30;49.50;;;;;;5001381;28;20458;-73
2023/07/15 10:48:40;;;;;;;1.40;1.30;;;26.30;49.40;;;;;;5005964;28;20505;-73
2023/07/15 10:51:10;;;;;;;2.83;1.90;;;26.30;49.30;;;;;;5008717;28;20459;-73
2023/07/15 10:53:39;;;;;;;1.80;1.70;;;26.30;49.50;;;;;;5001577;28;20498;-73
2023/07/15 10:56:10;;;;;;;1.70;1.50;;;26.30;50.00;;;;;;5016331;28;20458;-67
2023/07/15 10:58:41;;;;;;;2.33;1.57;;;26.30;50.40;;;;;;5009738;28;20439;-67
2023/07/15 11:01:11;;;;;;;2.20;1.70;;;26.30;50.30;;;;;;5005987;28;20483;-67
2023/07/15 11:03:41;;;;;;;2.00;1.67;;;26.30;50.90;;;;;;5016340;28;20505;-67
2023/07/15 11:06:10;;;;;;;1.60;1.50;;;26.30;50.50;;;;;;5009160;28;20481;-67
2023/07/15 11:08:40;;;;;;;1.93;1.73;;;26.30;50.40;;;;;;5006175;28;20447;-67
2023/07/15 11:11:11;;;;;;;2.80;1.50;;;26.30;50.40;;;;;;5008166;28;20436;-67
2023/07/15 11:13:42;;;;;;;1.60;1.50;;;26.30;50.50;;;;;;5011002;28;20460;-67
2023/07/15 11:16:10;;;;;;;1.93;1.50;;;26.30;50.50;;;;;;5001637;28;20487;-67
2023/07/15 11:18:39;;;;;;;1.70;1.33;;;26.30;50.50;;;;;;5003054;28;20456;-67
2023/07/15 11:21:08;;;;;;;1.77;1.67;;;26.30;50.70;;;;;;5007381;28;20520;-67
2023/07/15 11:23:36;;;;;;;1.77;1.63;;;26.30;50.50;;;;;;5006770;28;20845;-68
2023/07/15 11:26:09;;;;;;;3.50;2.10;;;26.30;50.50;;;;;;5007355;28;20463;-67
2023/07/15 11:28:49;;;;;;;2.40;1.77;;;26.30;51.50;;;;;;5009002;28;20835;-67
2023/07/15 11:31:20;;;;;;;1.60;1.20;;;26.30;51.10;;;;;;5004630;28;20566;-67
2023/07/15 11:33:51;;;;;;;1.70;1.30;;;26.30;51.00;;;;;;5013442;28;20886;-68
2023/07/15 11:36:20;;;;;;;1.93;1.73;;;26.30;50.30;;;;;;5011395;28;20434;-67
2023/07/15 11:38:49;;;;;;;1.60;1.50;;;26.30;50.90;;;;;;5001960;28;20531;-67
2023/07/15 11:41:17;;;;;;;1.93;1.60;;;26.30;51.40;;;;;;5007155;28;20518;-67
2023/07/15 11:43:46;;;;;;;1.93;1.40;;;26.30;50.80;;;;;;5009558;28;20592;-67
2023/07/15 11:46:16;;;;;;;1.60;1.50;;;26.30;50.50;;;;;;5011193;28;20431;-68
2023/07/15 11:48:47;;;;;;;2.13;1.93;;;26.30;50.40;;;;;;5008298;28;20809;-67
2023/07/15 11:51:15;;;;;;;2.27;1.70;;;26.30;50.90;;;;;;5002157;28;20429;-67
2023/07/15 11:53:45;;;;;;;1.67;1.57;;;26.30;50.90;;;;;;5001867;28;20842;-67
2023/07/15 11:56:33;;;;;;;1.50;1.40;;;26.30;52.10;;;;;;5004107;28;20457;-67
2023/07/15 11:59:01;;;;;;;1.40;1.30;;;26.30;51.50;;;;;;5004269;28;20468;-67
2023/07/15 12:01:31;;;;;;;2.10;1.37;;;26.30;52.10;;;;;;5010160;28;20983;-73
2023/07/15 12:04:00;;;;;;;1.50;1.40;;;26.30;52.00;;;;;;5002620;28;20515;-73
2023/07/15 12:06:29;;;;;;;2.13;1.60;;;26.30;51.50;;;;;;4996102;28;20448;-73
2023/07/15 12:09:03;;;;;;;1.97;1.33;;;26.30;52.70;;;;;;5000739;28;20479;-73
2023/07/15 12:11:33;;;;;;;1.53;1.43;;;26.30;51.60;;;;;;5002365;28;20443;-73
2023/07/15 12:14:03;;;;;;;1.60;1.50;;;26.30;51.70;;;;;;5004358;28;20488;-73
2023/07/15 12:16:35;;;;;;;2.47;1.70;;;26.30;52.00;;;;;;4999127;28;20516;-73
2023/07/15 12:19:04;;;;;;;1.70;1.60;;;26.30;52.90;;;;;;5005294;28;21014;-73
2023/07/15 12:21:33;;;;;;;2.57;2.00;;;26.30;52.80;;;;;;5007906;28;20491;-73
2023/07/15 12:24:02;;;;;;;2.90;1.87;;;26.30;53.00;;;;;;5002439;28;20685;-73
2023/07/15 12:26:31;;;;;;;1.87;1.77;;;26.30;52.70;;;;;;5009521;28;20435;-73
2023/07/15 12:28:59;;;;;;;2.70;1.63;;;26.30;52.70;;;;;;5001901;28;20514;-73
2023/07/15 12:31:28;;;;;;;1.60;1.50;;;26.30;53.00;;;;;;5002793;28;20439;-73
2023/07/15 12:33:58;;;;;;;2.60;2.03;;;26.30;52.50;;;;;;5005841;28;20474;-73
2023/07/15 12:36:26;;;;;;;1.70;1.60;;;26.30;52.50;;;;;;5006359;28;20547;-73
2023/07/15 12:38:55;;;;;;;2.40;1.87;;;26.20;52.10;;;;;;5005609;28;20496;-73
2023/07/15 12:41:24;;;;;;;1.60;1.50;;;26.20;51.10;;;;;;5005422;28;20500;-72
2023/07/15 12:43:53;;;;;;;2.20;2.00;;;26.20;51.60;;;;;;5006942;28;20541;-73
2023/07/15 12:46:21;;;;;;;3.10;1.73;;;26.20;51.70;;;;;;5000795;28;20452;-73
2023/07/15 12:48:51;;;;;;;2.20;2.00;;;26.20;51.30;;;;;;5018611;28;20464;-73
2023/07/15 12:51:21;;;;;;;1.80;1.70;;;26.30;51.60;;;;;;5007614;28;20721;-67
2023/07/15 12:53:49;;;;;;;2.00;1.77;;;26.20;51.60;;;;;;4999861;28;20479;-67
2023/07/15 12:56:20;;;;;;;1.73;1.63;;;26.20;51.70;;;;;;5008392;28;20464;-67
2023/07/15 12:58:48;;;;;;;2.27;1.47;;;26.20;51.40;;;;;;5000142;28;20483;-67
2023/07/15 13:01:17;;;;;;;2.10;1.90;;;26.20;51.60;;;;;;5001775;28;20453;-67